sensor_id;sensor_type;location;lat;lon;timestamp;P1;durP1;ratioP1;P2;durP2;ratioP2
20593;SDS011;10455;48.732;10.266;2022-10-31T00:03:50;16.57;;;12.43;;
20593;SDS011;10455;48.732;10.266;2022-10-31T00:08:53;14.43;;;11.33;;
20593;SDS011;10455;48.732;10.266;2022-10-31T00:13:58;21.27;;;13.10;;
20593;SDS011;10455;48.732;10.266;2022-10-31T00:19:01;17.00;;;11.93;;
20593;SDS011;10455;48.732;10.266;2022-10-31T00:24:05;21.77;;;13.07;;
20593;SDS011;10455;48.732;10.266;2022-10-31T00:29:08;23.70;;;16.40;;
20593;SDS011;10455;48.732;10.266;2022-10-31T00:34:12;23.73;;;16.00;;
20593;SDS011;10455;48.732;10.266;2022-10-31T00:39:14;19.80;;;13.50;;
20593;SDS011;10455;48.732;10.266;2022-10-31T00:44:17;26.57;;;15.03;;
20593;SDS011;10455;48.732;10.266;2022-10-31T00:49:19;19.40;;;12.30;;
20593;SDS011;10455;48.732;10.266;2022-10-31T00:54:21;21.43;;;13.87;;
20593;SDS011;10455;48.732;10.266;2022-10-31T00:59:25;23.30;;;14.13;;
20593;SDS011;10455;48.732;10.266;2022-10-31T01:04:26;20.37;;;12.90;;
20593;SDS011;10455;48.732;10.266;2022-10-31T01:09:28;22.77;;;14.43;;
20593;SDS011;10455;48.732;10.266;2022-10-31T01:14:32;17.20;;;12.97;;
20593;SDS011;10455;48.732;10.266;2022-10-31T01:19:34;24.60;;;13.23;;
20593;SDS011;10455;48.732;10.266;2022-10-31T01:24:36;22.03;;;14.33;;
20593;SDS011;10455;48.732;10.266;2022-10-31T01:29:39;21.07;;;14.53;;
20593;SDS011;10455;48.732;10.266;2022-10-31T01:34:41;22.07;;;11.47;;
20593;SDS011;10455;48.732;10.266;2022-10-31T01:39:43;19.80;;;11.63;;
20593;SDS011;10455;48.732;10.266;2022-10-31T01:44:51;20.83;;;12.00;;
20593;SDS011;10455;48.732;10.266;2022-10-31T01:50:01;20.00;;;12.60;;
20593;SDS011;10455;48.732;10.266;2022-10-31T01:55:07;18.73;;;13.20;;
20593;SDS011;10455;48.732;10.266;2022-10-31T02:00:14;18.43;;;11.70;;
20593;SDS011;10455;48.732;10.266;2022-10-31T02:05:17;17.23;;;11.80;;
20593;SDS011;10455;48.732;10.266;2022-10-31T02:10:20;17.50;;;11.00;;
20593;SDS011;10455;48.732;10.266;2022-10-31T02:15:24;20.53;;;10.50;;
20593;SDS011;10455;48.732;10.266;2022-10-31T02:20:28;23.03;;;12.87;;
20593;SDS011;10455;48.732;10.266;2022-10-31T02:31:16;18.43;;;11.20;;
20593;SDS011;10455;48.732;10.266;2022-10-31T02:36:31;18.20;;;11.60;;
20593;SDS011;10455;48.732;10.266;2022-10-31T02:41:43;19.57;;;12.10;;
20593;SDS011;10455;48.732;10.266;2022-10-31T02:46:51;24.90;;;12.90;;
20593;SDS011;10455;48.732;10.266;2022-10-31T02:51:59;20.43;;;11.33;;
20593;SDS011;10455;48.732;10.266;2022-10-31T02:57:02;18.33;;;11.70;;
20593;SDS011;10455;48.732;10.266;2022-10-31T03:02:11;13.60;;;9.90;;
20593;SDS011;10455;48.732;10.266;2022-10-31T03:07:25;14.07;;;9.57;;
20593;SDS011;10455;48.732;10.266;2022-10-31T03:12:37;13.03;;;9.53;;
20593;SDS011;10455;48.732;10.266;2022-10-31T03:17:45;16.20;;;10.27;;
20593;SDS011;10455;48.732;10.266;2022-10-31T03:22:54;17.93;;;11.03;;
20593;SDS011;10455;48.732;10.266;2022-10-31T03:27:58;13.60;;;10.23;;
20593;SDS011;10455;48.732;10.266;2022-10-31T03:33:05;15.43;;;10.90;;
20593;SDS011;10455;48.732;10.266;2022-10-31T03:38:11;14.47;;;9.90;;
20593;SDS011;10455;48.732;10.266;2022-10-31T03:43:16;18.70;;;11.57;;
20593;SDS011;10455;48.732;10.266;2022-10-31T03:48:24;12.10;;;9.17;;
20593;SDS011;10455;48.732;10.266;2022-10-31T03:53:30;16.33;;;8.30;;
20593;SDS011;10455;48.732;10.266;2022-10-31T03:58:35;15.27;;;9.53;;
20593;SDS011;10455;48.732;10.266;2022-10-31T04:03:44;16.90;;;11.40;;
20593;SDS011;10455;48.732;10.266;2022-10-31T04:08:48;18.63;;;13.00;;
20593;SDS011;10455;48.732;10.266;2022-10-31T04:13:52;13.87;;;10.50;;
20593;SDS011;10455;48.732;10.266;2022-10-31T04:18:57;16.60;;;9.50;;
20593;SDS011;10455;48.732;10.266;2022-10-31T04:23:59;15.90;;;10.03;;
20593;SDS011;10455;48.732;10.266;2022-10-31T04:29:01;12.27;;;8.97;;
20593;SDS011;10455;48.732;10.266;2022-10-31T04:34:05;13.33;;;9.67;;
20593;SDS011;10455;48.732;10.266;2022-10-31T04:39:07;16.53;;;9.60;;
20593;SDS011;10455;48.732;10.266;2022-10-31T04:44:09;15.57;;;9.70;;
20593;SDS011;10455;48.732;10.266;2022-10-31T04:49:12;12.87;;;8.63;;
20593;SDS011;10455;48.732;10.266;2022-10-31T04:54:14;15.93;;;11.00;;
20593;SDS011;10455;48.732;10.266;2022-10-31T04:59:16;20.93;;;11.33;;
20593;SDS011;10455;48.732;10.266;2022-10-31T05:04:19;16.53;;;9.37;;
20593;SDS011;10455;48.732;10.266;2022-10-31T05:09:21;17.60;;;10.57;;
20593;SDS011;10455;48.732;10.266;2022-10-31T05:14:23;13.00;;;8.90;;
20593;SDS011;10455;48.732;10.266;2022-10-31T05:19:26;17.77;;;10.33;;
20593;SDS011;10455;48.732;10.266;2022-10-31T05:24:28;12.43;;;8.30;;
20593;SDS011;10455;48.732;10.266;2022-10-31T05:29:30;19.83;;;11.87;;
20593;SDS011;10455;48.732;10.266;2022-10-31T05:34:34;14.50;;;9.57;;
20593;SDS011;10455;48.732;10.266;2022-10-31T05:39:36;14.63;;;10.63;;
20593;SDS011;10455;48.732;10.266;2022-10-31T05:44:38;17.60;;;10.93;;
20593;SDS011;10455;48.732;10.266;2022-10-31T05:49:42;14.37;;;9.03;;
20593;SDS011;10455;48.732;10.266;2022-10-31T05:54:44;12.80;;;8.93;;
20593;SDS011;10455;48.732;10.266;2022-10-31T05:59:46;12.03;;;8.97;;
20593;SDS011;10455;48.732;10.266;2022-10-31T06:04:49;13.50;;;9.70;;
20593;SDS011;10455;48.732;10.266;2022-10-31T06:09:51;15.17;;;9.00;;
20593;SDS011;10455;48.732;10.266;2022-10-31T06:14:53;16.50;;;10.80;;
20593;SDS011;10455;48.732;10.266;2022-10-31T06:19:56;14.27;;;9.97;;
20593;SDS011;10455;48.732;10.266;2022-10-31T06:24:58;17.70;;;11.20;;
20593;SDS011;10455;48.732;10.266;2022-10-31T06:30:00;15.70;;;11.30;;
20593;SDS011;10455;48.732;10.266;2022-10-31T06:35:04;12.60;;;9.47;;
20593;SDS011;10455;48.732;10.266;2022-10-31T06:40:07;12.47;;;8.87;;
20593;SDS011;10455;48.732;10.266;2022-10-31T06:45:10;20.27;;;10.90;;
20593;SDS011;10455;48.732;10.266;2022-10-31T06:50:13;13.63;;;8.23;;
20593;SDS011;10455;48.732;10.266;2022-10-31T06:55:15;12.60;;;7.17;;
20593;SDS011;10455;48.732;10.266;2022-10-31T07:00:17;15.23;;;9.87;;
20593;SDS011;10455;48.732;10.266;2022-10-31T07:05:22;17.83;;;9.03;;
20593;SDS011;10455;48.732;10.266;2022-10-31T07:10:25;14.57;;;8.80;;
20593;SDS011;10455;48.732;10.266;2022-10-31T07:15:29;11.83;;;9.20;;
20593;SDS011;10455;48.732;10.266;2022-10-31T07:20:36;19.83;;;10.80;;
20593;SDS011;10455;48.732;10.266;2022-10-31T07:25:39;18.70;;;11.20;;
20593;SDS011;10455;48.732;10.266;2022-10-31T07:30:41;14.30;;;11.47;;
20593;SDS011;10455;48.732;10.266;2022-10-31T07:35:44;14.77;;;8.20;;
20593;SDS011;10455;48.732;10.266;2022-10-31T07:40:49;20.53;;;16.20;;
20593;SDS011;10455;48.732;10.266;2022-10-31T07:45:53;19.13;;;12.53;;
20593;SDS011;10455;48.732;10.266;2022-10-31T07:50:56;15.47;;;10.50;;
20593;SDS011;10455;48.732;10.266;2022-10-31T07:55:58;18.63;;;13.20;;
20593;SDS011;10455;48.732;10.266;2022-10-31T08:01:00;9.87;;;8.47;;
20593;SDS011;10455;48.732;10.266;2022-10-31T08:06:03;14.53;;;8.43;;
20593;SDS011;10455;48.732;10.266;2022-10-31T08:11:06;11.13;;;8.03;;
20593;SDS011;10455;48.732;10.266;2022-10-31T08:16:08;13.13;;;7.13;;
20593;SDS011;10455;48.732;10.266;2022-10-31T08:21:11;12.77;;;7.28;;
20593;SDS011;10455;48.732;10.266;2022-10-31T08:26:13;10.75;;;8.82;;
20593;SDS011;10455;48.732;10.266;2022-10-31T08:31:15;9.18;;;6.50;;
20593;SDS011;10455;48.732;10.266;2022-10-31T08:36:19;7.30;;;5.88;;
20593;SDS011;10455;48.732;10.266;2022-10-31T08:41:22;12.52;;;6.05;;
20593;SDS011;10455;48.732;10.266;2022-10-31T08:46:24;9.65;;;5.85;;
20593;SDS011;10455;48.732;10.266;2022-10-31T08:51:28;9.10;;;6.15;;
20593;SDS011;10455;48.732;10.266;2022-10-31T08:56:30;10.77;;;5.78;;
20593;SDS011;10455;48.732;10.266;2022-10-31T09:01:32;9.35;;;6.13;;
20593;SDS011;10455;48.732;10.266;2022-10-31T09:06:35;7.32;;;4.78;;
20593;SDS011;10455;48.732;10.266;2022-10-31T09:11:37;9.05;;;4.97;;
20593;SDS011;10455;48.732;10.266;2022-10-31T09:16:39;9.40;;;6.03;;
20593;SDS011;10455;48.732;10.266;2022-10-31T09:21:42;9.98;;;5.80;;
20593;SDS011;10455;48.732;10.266;2022-10-31T09:26:44;7.50;;;6.07;;
20593;SDS011;10455;48.732;10.266;2022-10-31T09:31:46;13.43;;;8.52;;
20593;SDS011;10455;48.732;10.266;2022-10-31T09:36:49;11.75;;;7.85;;
20593;SDS011;10455;48.732;10.266;2022-10-31T09:42:01;12.68;;;9.68;;
20593;SDS011;10455;48.732;10.266;2022-10-31T09:47:17;12.25;;;7.88;;
20593;SDS011;10455;48.732;10.266;2022-10-31T09:52:29;11.63;;;8.00;;
20593;SDS011;10455;48.732;10.266;2022-10-31T09:57:33;11.23;;;7.53;;
20593;SDS011;10455;48.732;10.266;2022-10-31T10:02:37;13.10;;;7.28;;
20593;SDS011;10455;48.732;10.266;2022-10-31T10:07:49;16.42;;;10.55;;
20593;SDS011;10455;48.732;10.266;2022-10-31T10:13:01;19.52;;;12.40;;
20593;SDS011;10455;48.732;10.266;2022-10-31T10:18:26;16.35;;;11.52;;
20593;SDS011;10455;48.732;10.266;2022-10-31T10:23:44;25.42;;;15.32;;
20593;SDS011;10455;48.732;10.266;2022-10-31T10:28:54;19.17;;;14.80;;
20593;SDS011;10455;48.732;10.266;2022-10-31T10:34:01;21.30;;;14.63;;
20593;SDS011;10455;48.732;10.266;2022-10-31T10:39:11;20.98;;;15.20;;
20593;SDS011;10455;48.732;10.266;2022-10-31T10:44:18;15.73;;;12.18;;
20593;SDS011;10455;48.732;10.266;2022-10-31T10:49:22;16.85;;;14.15;;
20593;SDS011;10455;48.732;10.266;2022-10-31T10:54:43;21.48;;;13.48;;
20593;SDS011;10455;48.732;10.266;2022-10-31T10:59:51;16.75;;;13.23;;
20593;SDS011;10455;48.732;10.266;2022-10-31T11:04:53;19.85;;;14.30;;
20593;SDS011;10455;48.732;10.266;2022-10-31T11:10:04;26.45;;;15.88;;
20593;SDS011;10455;48.732;10.266;2022-10-31T11:15:18;22.02;;;16.25;;
20593;SDS011;10455;48.732;10.266;2022-10-31T11:20:26;21.40;;;14.85;;
20593;SDS011;10455;48.732;10.266;2022-10-31T11:25:36;24.60;;;14.23;;
20593;SDS011;10455;48.732;10.266;2022-10-31T11:30:42;19.02;;;13.45;;
20593;SDS011;10455;48.732;10.266;2022-10-31T11:35:46;22.70;;;15.13;;
20593;SDS011;10455;48.732;10.266;2022-10-31T11:40:55;19.92;;;13.55;;
20593;SDS011;10455;48.732;10.266;2022-10-31T11:45:59;16.73;;;10.95;;
20593;SDS011;10455;48.732;10.266;2022-10-31T11:51:08;20.70;;;14.57;;
20593;SDS011;10455;48.732;10.266;2022-10-31T11:56:13;24.35;;;15.18;;
20593;SDS011;10455;48.732;10.266;2022-10-31T12:01:22;25.95;;;15.73;;
20593;SDS011;10455;48.732;10.266;2022-10-31T12:06:28;25.23;;;15.45;;
20593;SDS011;10455;48.732;10.266;2022-10-31T12:11:38;21.23;;;15.13;;
20593;SDS011;10455;48.732;10.266;2022-10-31T12:16:48;23.40;;;15.55;;
20593;SDS011;10455;48.732;10.266;2022-10-31T12:22:03;21.00;;;14.73;;
20593;SDS011;10455;48.732;10.266;2022-10-31T12:27:13;19.80;;;12.88;;
20593;SDS011;10455;48.732;10.266;2022-10-31T12:32:28;25.77;;;16.10;;
20593;SDS011;10455;48.732;10.266;2022-10-31T12:37:41;23.85;;;14.57;;
20593;SDS011;10455;48.732;10.266;2022-10-31T12:42:57;21.20;;;13.88;;
20593;SDS011;10455;48.732;10.266;2022-10-31T12:48:16;21.70;;;13.63;;
20593;SDS011;10455;48.732;10.266;2022-10-31T12:53:40;19.43;;;13.73;;
20593;SDS011;10455;48.732;10.266;2022-10-31T12:58:53;22.05;;;14.90;;
20593;SDS011;10455;48.732;10.266;2022-10-31T13:04:01;19.98;;;14.30;;
20593;SDS011;10455;48.732;10.266;2022-10-31T13:09:07;21.30;;;14.77;;
20593;SDS011;10455;48.732;10.266;2022-10-31T13:14:15;21.05;;;14.85;;
20593;SDS011;10455;48.732;10.266;2022-10-31T13:19:27;21.63;;;14.60;;
20593;SDS011;10455;48.732;10.266;2022-10-31T13:24:36;23.40;;;15.23;;
20593;SDS011;10455;48.732;10.266;2022-10-31T13:29:42;22.45;;;16.05;;
20593;SDS011;10455;48.732;10.266;2022-10-31T13:34:59;26.65;;;15.18;;
20593;SDS011;10455;48.732;10.266;2022-10-31T13:40:05;20.38;;;14.05;;
20593;SDS011;10455;48.732;10.266;2022-10-31T13:45:17;23.00;;;14.98;;
20593;SDS011;10455;48.732;10.266;2022-10-31T13:50:22;19.52;;;14.30;;
20593;SDS011;10455;48.732;10.266;2022-10-31T13:55:34;21.45;;;15.45;;
20593;SDS011;10455;48.732;10.266;2022-10-31T14:00:39;22.48;;;15.35;;
20593;SDS011;10455;48.732;10.266;2022-10-31T14:05:41;24.40;;;14.75;;
20593;SDS011;10455;48.732;10.266;2022-10-31T14:10:46;21.33;;;15.20;;
20593;SDS011;10455;48.732;10.266;2022-10-31T14:15:54;21.27;;;14.75;;
20593;SDS011;10455;48.732;10.266;2022-10-31T14:20:57;22.75;;;14.52;;
20593;SDS011;10455;48.732;10.266;2022-10-31T14:26:06;21.88;;;15.43;;
20593;SDS011;10455;48.732;10.266;2022-10-31T14:31:29;22.88;;;14.90;;
20593;SDS011;10455;48.732;10.266;2022-10-31T14:36:37;22.73;;;15.60;;
20593;SDS011;10455;48.732;10.266;2022-10-31T14:41:47;23.20;;;15.10;;
20593;SDS011;10455;48.732;10.266;2022-10-31T14:47:02;20.70;;;14.25;;
20593;SDS011;10455;48.732;10.266;2022-10-31T14:52:12;19.88;;;14.15;;
20593;SDS011;10455;48.732;10.266;2022-10-31T14:57:16;20.67;;;14.02;;
20593;SDS011;10455;48.732;10.266;2022-10-31T15:02:25;21.42;;;13.15;;
20593;SDS011;10455;48.732;10.266;2022-10-31T15:07:31;20.05;;;13.25;;
20593;SDS011;10455;48.732;10.266;2022-10-31T15:12:34;20.85;;;14.45;;
20593;SDS011;10455;48.732;10.266;2022-10-31T15:17:41;15.95;;;13.68;;
20593;SDS011;10455;48.732;10.266;2022-10-31T15:22:45;20.95;;;13.73;;
20593;SDS011;10455;48.732;10.266;2022-10-31T15:27:48;20.95;;;15.15;;
20593;SDS011;10455;48.732;10.266;2022-10-31T15:32:52;19.33;;;14.30;;
20593;SDS011;10455;48.732;10.266;2022-10-31T15:37:56;22.63;;;16.83;;
20593;SDS011;10455;48.732;10.266;2022-10-31T15:42:59;21.00;;;17.10;;
20593;SDS011;10455;48.732;10.266;2022-10-31T15:48:13;21.52;;;17.02;;
20593;SDS011;10455;48.732;10.266;2022-10-31T15:53:18;28.15;;;18.52;;
20593;SDS011;10455;48.732;10.266;2022-10-31T15:58:24;24.85;;;18.38;;
20593;SDS011;10455;48.732;10.266;2022-10-31T16:03:33;29.17;;;20.73;;
20593;SDS011;10455;48.732;10.266;2022-10-31T16:08:35;29.27;;;20.75;;
20593;SDS011;10455;48.732;10.266;2022-10-31T16:13:39;32.45;;;23.65;;
20593;SDS011;10455;48.732;10.266;2022-10-31T16:18:55;39.20;;;27.07;;
20593;SDS011;10455;48.732;10.266;2022-10-31T16:24:00;31.37;;;25.13;;
20593;SDS011;10455;48.732;10.266;2022-10-31T16:29:04;42.47;;;28.73;;
20593;SDS011;10455;48.732;10.266;2022-10-31T16:34:22;35.00;;;22.87;;
20593;SDS011;10455;48.732;10.266;2022-10-31T16:39:25;26.77;;;19.67;;
20593;SDS011;10455;48.732;10.266;2022-10-31T16:44:26;29.10;;;23.10;;
20593;SDS011;10455;48.732;10.266;2022-10-31T16:49:30;45.43;;;34.33;;
20593;SDS011;10455;48.732;10.266;2022-10-31T16:54:32;52.97;;;38.63;;
20593;SDS011;10455;48.732;10.266;2022-10-31T16:59:34;56.43;;;40.00;;
20593;SDS011;10455;48.732;10.266;2022-10-31T17:04:37;55.60;;;38.97;;
20593;SDS011;10455;48.732;10.266;2022-10-31T17:09:39;60.83;;;48.25;;
20593;SDS011;10455;48.732;10.266;2022-10-31T17:14:41;44.60;;;29.20;;
20593;SDS011;10455;48.732;10.266;2022-10-31T17:19:46;38.47;;;25.63;;
20593;SDS011;10455;48.732;10.266;2022-10-31T17:24:48;38.87;;;24.93;;
20593;SDS011;10455;48.732;10.266;2022-10-31T17:29:50;38.57;;;27.10;;
20593;SDS011;10455;48.732;10.266;2022-10-31T17:34:54;38.30;;;27.30;;
20593;SDS011;10455;48.732;10.266;2022-10-31T17:39:55;60.77;;;34.60;;
20593;SDS011;10455;48.732;10.266;2022-10-31T17:44:57;74.90;;;47.77;;
20593;SDS011;10455;48.732;10.266;2022-10-31T17:50:01;86.10;;;47.80;;
20593;SDS011;10455;48.732;10.266;2022-10-31T17:55:03;49.53;;;32.30;;
20593;SDS011;10455;48.732;10.266;2022-10-31T18:00:07;58.40;;;37.83;;
20593;SDS011;10455;48.732;10.266;2022-10-31T18:05:13;72.27;;;42.40;;
20593;SDS011;10455;48.732;10.266;2022-10-31T18:10:15;66.30;;;41.83;;
20593;SDS011;10455;48.732;10.266;2022-10-31T18:15:17;58.03;;;38.13;;
20593;SDS011;10455;48.732;10.266;2022-10-31T18:20:20;57.67;;;36.03;;
20593;SDS011;10455;48.732;10.266;2022-10-31T18:25:22;52.00;;;31.50;;
20593;SDS011;10455;48.732;10.266;2022-10-31T18:30:24;63.40;;;37.00;;
20593;SDS011;10455;48.732;10.266;2022-10-31T18:35:28;59.60;;;36.57;;
20593;SDS011;10455;48.732;10.266;2022-10-31T18:40:30;73.77;;;40.30;;
20593;SDS011;10455;48.732;10.266;2022-10-31T18:45:32;56.60;;;33.97;;
20593;SDS011;10455;48.732;10.266;2022-10-31T18:50:39;66.17;;;39.50;;
20593;SDS011;10455;48.732;10.266;2022-10-31T18:55:41;80.17;;;44.90;;
20593;SDS011;10455;48.732;10.266;2022-10-31T19:00:43;62.80;;;38.00;;
20593;SDS011;10455;48.732;10.266;2022-10-31T19:05:47;61.10;;;37.70;;
20593;SDS011;10455;48.732;10.266;2022-10-31T19:10:48;54.23;;;37.70;;
20593;SDS011;10455;48.732;10.266;2022-10-31T19:15:50;61.80;;;39.70;;
20593;SDS011;10455;48.732;10.266;2022-10-31T19:20:54;73.57;;;44.43;;
20593;SDS011;10455;48.732;10.266;2022-10-31T19:25:56;91.53;;;50.90;;
20593;SDS011;10455;48.732;10.266;2022-10-31T19:30:59;60.37;;;39.63;;
20593;SDS011;10455;48.732;10.266;2022-10-31T19:36:03;61.30;;;42.50;;
20593;SDS011;10455;48.732;10.266;2022-10-31T19:41:10;54.33;;;35.70;;
20593;SDS011;10455;48.732;10.266;2022-10-31T19:46:13;67.40;;;42.83;;
20593;SDS011;10455;48.732;10.266;2022-10-31T19:51:19;79.97;;;53.23;;
20593;SDS011;10455;48.732;10.266;2022-10-31T19:56:22;51.77;;;36.93;;
20593;SDS011;10455;48.732;10.266;2022-10-31T20:01:25;68.03;;;43.63;;
20593;SDS011;10455;48.732;10.266;2022-10-31T20:06:29;60.33;;;46.00;;
20593;SDS011;10455;48.732;10.266;2022-10-31T20:11:32;50.63;;;34.17;;
20593;SDS011;10455;48.732;10.266;2022-10-31T20:16:36;60.47;;;35.57;;
20593;SDS011;10455;48.732;10.266;2022-10-31T20:21:40;62.08;;;42.92;;
20593;SDS011;10455;48.732;10.266;2022-10-31T20:26:42;62.53;;;41.60;;
20593;SDS011;10455;48.732;10.266;2022-10-31T20:31:44;60.73;;;42.57;;
20593;SDS011;10455;48.732;10.266;2022-10-31T20:36:48;66.90;;;43.80;;
20593;SDS011;10455;48.732;10.266;2022-10-31T20:41:50;58.60;;;40.70;;
20593;SDS011;10455;48.732;10.266;2022-10-31T20:46:52;121.83;;;57.80;;
20593;SDS011;10455;48.732;10.266;2022-10-31T20:51:56;57.27;;;41.53;;
20593;SDS011;10455;48.732;10.266;2022-10-31T20:56:58;62.63;;;45.30;;
20593;SDS011;10455;48.732;10.266;2022-10-31T21:02:00;70.57;;;41.90;;
20593;SDS011;10455;48.732;10.266;2022-10-31T21:07:03;93.07;;;47.00;;
20593;SDS011;10455;48.732;10.266;2022-10-31T21:12:06;88.03;;;47.07;;
20593;SDS011;10455;48.732;10.266;2022-10-31T21:17:08;102.40;;;51.53;;
20593;SDS011;10455;48.732;10.266;2022-10-31T21:22:11;103.47;;;48.67;;
20593;SDS011;10455;48.732;10.266;2022-10-31T21:27:13;106.17;;;44.97;;
20593;SDS011;10455;48.732;10.266;2022-10-31T21:32:15;102.10;;;50.90;;
20593;SDS011;10455;48.732;10.266;2022-10-31T21:37:18;78.33;;;49.60;;
20593;SDS011;10455;48.732;10.266;2022-10-31T21:42:20;75.10;;;45.63;;
20593;SDS011;10455;48.732;10.266;2022-10-31T21:47:23;65.30;;;42.33;;
20593;SDS011;10455;48.732;10.266;2022-10-31T21:52:26;98.67;;;60.67;;
20593;SDS011;10455;48.732;10.266;2022-10-31T21:57:28;112.70;;;60.43;;
20593;SDS011;10455;48.732;10.266;2022-10-31T22:02:30;194.65;;;93.15;;
20593;SDS011;10455;48.732;10.266;2022-10-31T22:07:33;135.83;;;69.50;;
20593;SDS011;10455;48.732;10.266;2022-10-31T22:12:35;156.97;;;73.93;;
20593;SDS011;10455;48.732;10.266;2022-10-31T22:17:49;205.13;;;88.90;;
20593;SDS011;10455;48.732;10.266;2022-10-31T22:22:53;320.47;;;99.93;;
20593;SDS011;10455;48.732;10.266;2022-10-31T22:27:55;159.70;;;81.23;;
20593;SDS011;10455;48.732;10.266;2022-10-31T22:32:57;115.80;;;65.77;;
20593;SDS011;10455;48.732;10.266;2022-10-31T22:38:00;149.40;;;72.57;;
20593;SDS011;10455;48.732;10.266;2022-10-31T22:43:02;96.17;;;60.50;;
20593;SDS011;10455;48.732;10.266;2022-10-31T22:48:05;141.87;;;69.53;;
20593;SDS011;10455;48.732;10.266;2022-10-31T22:53:08;172.60;;;68.40;;
20593;SDS011;10455;48.732;10.266;2022-10-31T22:58:12;223.83;;;82.53;;
20593;SDS011;10455;48.732;10.266;2022-10-31T23:03:14;113.27;;;65.60;;
20593;SDS011;10455;48.732;10.266;2022-10-31T23:08:17;160.07;;;81.00;;
20593;SDS011;10455;48.732;10.266;2022-10-31T23:13:19;174.53;;;80.27;;
20593;SDS011;10455;48.732;10.266;2022-10-31T23:18:39;137.43;;;75.40;;
20593;SDS011;10455;48.732;10.266;2022-10-31T23:23:42;86.70;;;60.03;;
20593;SDS011;10455;48.732;10.266;2022-10-31T23:28:44;89.13;;;57.30;;
20593;SDS011;10455;48.732;10.266;2022-10-31T23:33:46;128.43;;;67.50;;
20593;SDS011;10455;48.732;10.266;2022-10-31T23:38:51;121.47;;;81.70;;
20593;SDS011;10455;48.732;10.266;2022-10-31T23:43:53;175.10;;;65.13;;
20593;SDS011;10455;48.732;10.266;2022-10-31T23:48:55;229.13;;;79.40;;
20593;SDS011;10455;48.732;10.266;2022-10-31T23:53:58;217.63;;;77.10;;
20593;SDS011;10455;48.732;10.266;2022-10-31T23:59:00;79.93;;;45.90;;
